Flight Track Log - Related Links

Times and Time Zones

All times are in EST time to prevent confusion due to time zone crossing. See the N877PM flight status page for this flight to view local times or setup timezone preferences in your user account.

Time Position Orientation Groundspeed Altitude Reporting Facility
EST Latitude Longitude Course Direction KTS MPH feet Rate Location/Type
Sun 09:36:37 PM 39.9500 -86.0500 303° West 131 151 1,400  Level Indianapolis TRACON
Sun 09:37:25 PM 39.9667 -86.0833 303° West 145 167 4,000 3,032 Climbing Indianapolis TRACON
Sun 09:38:10 PM 39.9842 -86.1053 316° Northwest 147 169 6,100 3,057 Climbing Indianapolis Center
Sun 09:39:11 PM 40.0131 -86.1561 307° West 146 168 9,400 2,829 Climbing Indianapolis Center
Sun 09:40:13 PM 40.0392 -86.2047 305° West 161 185 11,900 2,293 Climbing Indianapolis Center
Sun 09:41:14 PM 40.0581 -86.2578 295° West 162 186 14,100 2,000 Climbing Indianapolis Center
Sun 09:42:16 PM 40.0792 -86.3142 296° West 171 197 16,000 1,756 Climbing Indianapolis Center
Sun 09:43:17 PM 40.1003 -86.3728 295° West 179 206 17,700 1,842 Climbing Indianapolis Center
Sun 09:43:57 PM 40.1331 -86.4081 321° Northwest 189 217 19,100 2,000 Climbing Chicago Center
Sun 09:44:59 PM 40.1725 -86.4561 317° Northwest 202 232 21,100 1,707 Climbing Chicago Center
Sun 09:46:00 PM 40.1950 -86.5167 296° West 187 215 22,600 1,463 Climbing Chicago Center
Sun 09:47:02 PM 40.2272 -86.5711 308° West 199 229 24,100 1,463 Climbing Chicago Center
Sun 09:48:03 PM 40.2825 -86.6022 337° Northwest 214 246 25,600 1,415 Climbing Chicago Center
Sun 09:49:05 PM 40.3386 -86.6364 335° Northwest 221 254 27,000 1,366 Climbing Chicago Center
Sun 09:50:06 PM 40.3742 -86.7008 306° West 221 254 28,400 1,415 Climbing Chicago Center
Sun 09:51:08 PM 40.4033 -86.7922 293° West 226 260 29,900 780 Climbing Chicago Center
Sun 09:52:09 PM 40.4294 -86.8753 292° West 245 282 30,000 49 Climbing Chicago Center
Sun 09:53:11 PM 40.4597 -86.9675 293° West 273 314 30,000  Level Chicago Center
Sun 09:54:12 PM 40.4908 -87.0639 293° West 286 329 30,000  Level Chicago Center
Sun 09:55:14 PM 40.5217 -87.1608 293° West 290 334 30,000  Level Chicago Center
Sun 09:56:15 PM 40.5531 -87.2592 293° West 292 336 30,000  Level Chicago Center
Sun 09:57:17 PM 40.5831 -87.3578 292° West 291 335 30,000  Level Chicago Center
Sun 09:58:18 PM 40.6214 -87.4742 293° West 291 335 30,000  Level Chicago Center
Sun 09:59:19 PM 40.6517 -87.5731 292° West 292 336 30,000  Level Chicago Center
Sun 10:00:21 PM 40.6831 -87.6711 293° West 291 335 30,000  Level Chicago Center
Sun 10:01:22 PM 40.7139 -87.7717 292° West 294 338 30,000  Level Chicago Center
Sun 10:02:24 PM 40.7444 -87.8711 292° West 294 338 30,000  Level Chicago Center
Sun 10:03:25 PM 40.7756 -87.9708 292° West 295 339 30,000  Level Chicago Center
Sun 10:04:27 PM 40.8075 -88.0700 293° West 293 337 30,000  Level Chicago Center
Sun 10:05:28 PM 40.8383 -88.1700 292° West 293 337 30,000  Level Chicago Center
Sun 10:06:30 PM 40.8700 -88.2714 292° West 298 343 30,000  Level Chicago Center
Sun 10:07:31 PM 40.9069 -88.3919 292° West 295 339 30,000  Level Chicago Center
Sun 10:08:32 PM 40.9369 -88.4936 291° West 296 341 30,000  Level Chicago Center
Sun 10:09:34 PM 40.9664 -88.5950 291° West 296 341 30,000  Level Chicago Center
Sun 10:10:35 PM 40.9967 -88.6964 292° West 296 341 30,000  Level Chicago Center
Sun 10:11:36 PM 41.0247 -88.7964 290° West 292 336 30,000  Level Chicago Center
Sun 10:12:39 PM 41.0564 -88.9003 292° West 301 346 30,000  Level Chicago Center
Sun 10:13:39 PM 41.0864 -89.0011 292° West 296 341 30,000  Level Chicago Center
Sun 10:14:40 PM 41.1147 -89.1019 290° West 294 338 30,000  Level Chicago Center
Sun 10:15:42 PM 41.1478 -89.2172 291° West 293 337 30,000  Level Chicago Center
Sun 10:16:43 PM 41.1764 -89.3186 291° West 295 339 30,000  Level Chicago Center
Sun 10:17:44 PM 41.2056 -89.4200 291° West 295 339 30,000  Level Chicago Center
Sun 10:18:45 PM 41.2344 -89.5214 291° West 296 341 30,000 -836 Level Chicago Center
Sun 10:19:46 PM 41.2633 -89.6217 291° West 294 338 28,300 -1,463 Descending Chicago Center
Sun 10:20:48 PM 41.2919 -89.7231 291° West 294 338 27,000 -1,268 Descending Chicago Center
Sun 10:21:49 PM 41.3211 -89.8267 291° West 298 343 25,700 -1,328 Descending Chicago Center
Sun 10:22:50 PM 41.3514 -89.9344 291° West 308 354 24,300 -836 Descending Chicago Center
Sun 10:23:51 PM 41.3808 -90.0392 291° West 306 352 24,000 -148 Descending Chicago Center
Sun 10:24:52 PM 41.4136 -90.1522 291° West 280 322 24,000  Level Chicago Center
Sun 10:25:53 PM 41.4406 -90.2514 290° West 285 328 24,000 -148 Level Chicago Center
Sun 10:26:54 PM 41.4681 -90.3494 291° West 285 328 23,700 -934 Descending Chicago Center
Sun 10:27:55 PM 41.4956 -90.4542 289° West 297 342 22,100 -1,721 Descending Chicago Center
Sun 10:28:56 PM 41.5250 -90.5589 291° West 302 348 20,200 -1,967 Descending Chicago Center
Sun 10:29:57 PM 41.5539 -90.6750 288° West 310 357 18,100 -1,967 Descending Chicago Center
Sun 10:30:58 PM 41.5803 -90.7678 291° West 276 318 16,200 -1,967 Descending Chicago Center
Sun 10:31:59 PM 41.6036 -90.8528 290° West 252 290 14,100 -1,967 Descending Chicago Center
Sun 10:33:00 PM 41.6333 -90.9386 295° West 254 292 12,200 -1,525 Descending Chicago Center
Sun 10:34:01 PM 41.6614 -91.0256 293° West 257 296 11,000 -541 Descending Chicago Center
Sun 10:35:02 PM 41.6783 -91.1044 286° West 228 262 11,100 -541 Climbing Chicago Center
Sun 10:36:03 PM 41.6878 -91.1931 278° West 238 274 9,900 -1,328 Descending Chicago Center
Sun 10:37:04 PM 41.6961 -91.2822 277° West 243 280 8,400 -1,721 Descending Chicago Center
Sun 10:38:05 PM 41.7050 -91.3639 278° West 229 264 6,400 -2,000 Descending Chicago Center
Sun 10:39:07 PM 41.7164 -91.4514 280° West 211 243 4,300 -1,122 Descending Chicago Center
Sun 10:40:08 PM 41.7239 -91.5283 277° West 207 238 4,100 -148 Descending Chicago Center
Sun 10:41:09 PM 41.7369 -91.6122 282° West 214 246 4,000  Descending Chicago Center
Sun 10:42:10 PM 41.7489 -91.7022 280° West 227 261 4,100 49 Climbing Chicago Center
Sun 10:43:11 PM 41.7614 -91.7892 281° West 235 270 4,100 -148 Level Chicago Center
Sun 10:44:12 PM 41.7750 -91.8772 282° West 238 274 3,800 -738 Descending Chicago Center
Sun 10:45:13 PM 41.7981 -91.9547 292° West 234 269 2,600 -595 Descending Chicago Center
Sun 10:46:13 PM 41.8436 -91.9653 350° North 202 232 2,600  Level Chicago Center
Sun 10:47:14 PM 41.8733 -91.9311 41° Northeast 172 198 2,600  Level Chicago Center
Sun 10:48:15 PM 41.8878 -91.8733 71° East 167 192 2,600 -98 Level Chicago Center
Sun 10:49:16 PM 41.8856 -91.8208 93° East 155 178 2,400 -344 Descending Chicago Center
Sun 10:50:17 PM 41.8850 -91.7681 91° East 141 162 1,900 -492 Descending Chicago Center

Login

Don't have an account? Register now (free) for customized features, flight alerts, and more!